Airfield :
LOGIN :

Register | Disclaimer

   EN    FR    IT 

 










Legend :    VFR   Marginal VFR   IFR   Intensive IFR   Very Intensive IFR
Visi :
Ceiling :
>= 8 km
>= 3000ft
5 to 8 km
1000 to 3000 ft
1500m to 5 km
500 to 1000 ft
800 to 1500m
200 to 500 ft
< 800m
< 200 ft
Symbols :   Thunderstorms  Fog  Heavy snow  Heavy precipitations  Wind > 20 kt
SIGMETs :     Misc.  Thunderstorms  Icing  Turbulence  Mountain Waves  Volcanic Ashes







- Airport Elevation : 863 ft
- IATA code : ZAZ


LEZG - Zaragoza Aragon

CURRENT METAR :
  • 131500Z 17001KT 9000 FEW025 BKN040 18/12 Q1025

EXPIRED METARs :
  • 131430Z 00000KT 9000 FEW025 BKN040 18/12 Q1025
  • 131400Z 28001KT 9000 FEW025 BKN040 18/12 Q1025
  • 131330Z 29003KT 250V340 9000 FEW025 BKN040 17/12 Q1025
  • 131300Z 28005KT 230V320 9000 FEW025 OVC040 17/13 Q1026
  • 131230Z 27005KT 240V310 9000 FEW025 OVC039 16/12 Q1026

TAF TAF LEZG
Valid from the 13 at 12:00 until the 14 at 12:00 UTC


131100Z 1312/1412 31008KT 9999 FEW040 TX19/1313Z TN11/1406Z
BECMG 1313/1316 13007KT
BECMG 1322/1401 VRB03KT
PROB40
TEMPO 1322/1408 3000 BR BKN014
BECMG 1409/1411 11010KT
No reported NOTAMs for that airfield.



MET'MAP, your aeronautical weather chart ! - Copyright ORBIFLY December 2007 - Disclaimer

ORBIFLY MET'MAP TEAM :

Programming & Development : Alexandra Zaïnal
Concept & Development : Baudouin d'Aumeries
Co-Development & Prog : Marc-Olivier Méhu
Technical & hardware support : Manuel Goepfert

Contact : metmap@orbifly.com




SOURCES & CREDITS :

   NOAA